Aviation Digital Data Service (ADDS)

Output produced by METARs form (1134 UTC 07 October 2022)
found at http://www.aviationweather.gov/metar/data/
 
VTSP 071100Z 00000KT 9999 FEW020 24/24 Q1008 NOSIG
VTSP 071030Z VRB01KT 9999 FEW010 25/24 Q1008 NOSIG
VTSP 071000Z VRB02KT 9999 FEW010 BKN100 24/24 Q1008 NOSIG
VTSP 070930Z VRB02KT 9999 FEW010 BKN100 24/24 Q1007 NOSIG
VTSP 070900Z VRB02KT 9999 -RA FEW010 SCT020 BKN100 24/24 Q1008 NOSIG
VTSP 070830Z 29003KT 8000 -RA FEW010 SCT018 BKN050 24/23 Q1008 RERA NOSIG
VTSP 070800Z 24008KT 1500 +RA FEW005 SCT015CB BKN020 24/24 Q1008 BECMG TL0815 NSW
VTSP 070730Z 26006KT 9999 3500SW -RA FEW010 SCT018CB BKN030 26/24 Q1008 NOSIG
VTSP 070700Z 30003KT 260V330 9999 4000SW -RA FEW010 SCT020 BKN030 26/25 Q1008 NOSIG
VTSP 070630Z 29004KT 240V320 9000 4000NW -RA FEW005 SCT020 25/25 Q1008 RETS NOSIG
VTSP 070600Z 09006KT 9000 2000E -TSRA FEW013 SCT018CB BKN030 25/24 Q1009 NOSIG
VTSP 070530Z 25004KT 220V290 9000 -RA FEW011 SCT018TCU BKN030 26/24 Q1009 NOSIG
VTSP 070500Z 08003KT 010V120 9999 -RA FEW018 SCT020 BKN050 28/24 Q1010 NOSIG
VTSP 070430Z 09004KT 030V140 9999 FEW012 SCT020 28/24 Q1010 NOSIG
VTSP 070400Z 08003KT 010V150 9999 FEW012 SCT020 28/24 Q1010 NOSIG
VTSP 070330Z 10003KT 020V160 9999 FEW010 SCT020 BKN100 27/24 Q1011 NOSIG
VTSP 070300Z VRB02KT 9999 -RA FEW010 SCT020 BKN100 27/24 Q1011 NOSIG
VTSP 070230Z VRB02KT 9000 FEW010 SCT020 BKN100 26/24 Q1011 NOSIG
VTSP 070200Z 33004KT 300V020 9000 -RA FEW010 SCT020 BKN100 25/24 Q1011 NOSIG
VTSP 070130Z VRB01KT 9000 -RA FEW010 SCT020 BKN100 25/24 Q1011 NOSIG
VTSP 070100Z 10003KT 050V120 9000 -RA FEW010 SCT020 BKN100 25/24 Q1010 NOSIG
VTSP 070030Z 00000KT 9999 -RA SCT020 BKN100 25/24 Q1010 NOSIG
VTSP 070000Z VRB02KT 9999 -RA FEW020 SCT080 24/23 Q1009 NOSIG
VTSP 062330Z 00000KT 9999 FEW020 SCT040 24/24 Q1009 NOSIG
VTSP 062300Z VRB01KT 9999 FEW020 SCT040 25/24 Q1008 NOSIG
VTSP 062230Z VRB02KT 9999 FEW020 24/23 Q1008 NOSIG
VTSP 062200Z VRB01KT 9999 FEW020 25/23 Q1008 NOSIG
VTSP 062130Z VRB01KT 9999 FEW020 25/23 Q1008 NOSIG
VTSP 062100Z VRB02KT 9999 FEW020 25/23 Q1008 NOSIG
VTSP 062030Z 16003KT 110V220 9999 FEW020 25/23 Q1008 NOSIG
VTSP 062000Z 16002KT 9999 FEW020 25/24 Q1008 NOSIG
VTSP 061930Z VRB02KT 9999 FEW020 25/24 Q1008 NOSIG
VTSP 061900Z VRB02KT 9999 FEW020 26/25 Q1008 NOSIG
VTSP 061830Z 09003KT 9999 FEW020 25/25 Q1009 NOSIG
VTSP 061800Z VRB01KT 9999 FEW020 25/24 Q1009 NOSIG
VTSP 061730Z VRB02KT 9999 FEW020 SCT060 26/24 Q1010 NOSIG
VTSP 061700Z 07003KT 040V110 9999 FEW020 SCT060 25/24 Q1010 NOSIG
VTSP 061630Z 12003KT 070V190 9999 FEW020 SCT060 25/24 Q1010 NOSIG
VTSP 061600Z VRB02KT 9999 FEW020 26/25 Q1010 NOSIG
VTSP 061530Z VRB02KT 9999 FEW020 26/24 Q1010 NOSIG
VTSP 061500Z VRB03KT 9999 FEW020 BKN100 26/25 Q1010 NOSIG
VTSP 061430Z 10004KT 050V170 9999 FEW020 BKN100 26/25 Q1010 NOSIG
VTSP 061400Z VRB02KT 9999 FEW020 BKN080 26/25 Q1010 NOSIG
VTSP 061330Z VRB02KT 9999 FEW012 SCT020 BKN070 26/25 Q1009 NOSIG
VTSP 061300Z VRB01KT 9999 -RA FEW010 SCT015 BKN020 26/25 Q1009 NOSIG
VTSP 061230Z VRB02KT 9999 -RA FEW014 SCT018 26/25 Q1008 NOSIG
VTSP 061200Z VRB02KT 9999 FEW018 26/25 Q1008 NOSIG
TAF VTSP 070500Z 0706/0812 08006KT 9999 SCT020 
     TEMPO 0706/0712 28015G25KT 3000 TSRA FEW018CB SCT020 BKN100 
     BECMG 0714/0716 00000KT 
     BECMG 0800/0802 08006KT